New Iberia, Louisiana
Current Conditions -  °F | °C
As of 6:53 PM on Thursday 18 Dec 2014 (Local Time) from KARA Reporting Station
Overcast Overcast  
Wind Chill: 63°   Ceiling: 1300
Heat Index: 63°   Visibility: 10mi
Dew Point: 54°   Wind: 8mph
Humidity: 72%   Direction: 60°ENE
Pressure: 30.1"   Gusts: NA
Location:  30.01°N, 91.82°W
Report Text: KARA 190053Z 06007KT 10SM OVC013 17/12 A3010 RMK AO2 SLP192 T01720122
Loading
Personal Weather Stations






























Interactive Weather Map New forecast layout! Learn more

10-Day Weather Forecast

Advertisements
Track Severe Weather on mobile